Time;durP1;ratioP1;P1;durP2;ratioP2;P2;SDS_P1;SDS_P2;PMS_P1;PMS_P2;Temp;Humidity;BMP_temperature;BMP_pressure;BME280_temperature;BME280_humidity;BME280_pressure;Samples;Min_cycle;Max_cycle;Signal;HPM_P1;HPM_P2
2022/11/01 00:01:10;;;;;;;24.17;13.70;;;;;;;;;;5073674;28;20055;-89
2022/11/01 00:03:38;;;;;;;21.40;13.35;;;;;;;;;;5072589;28;20106;-90
2022/11/01 00:06:05;;;;;;;24.13;14.60;;;;;;;;;;5073119;28;20057;-90
2022/11/01 00:08:32;;;;;;;26.30;13.25;;;;;;;;;;5056086;28;20052;-89
2022/11/01 00:11:03;;;;;;;18.38;12.98;;;;;;;;;;5052479;28;20599;-90
2022/11/01 00:13:31;;;;;;;21.83;13.23;;;;;;;;;;5052449;28;20067;-90
2022/11/01 00:15:58;;;;;;;21.63;12.25;;;;;;;;;;5052413;28;20481;-90
2022/11/01 00:18:26;;;;;;;23.27;13.05;;;;;;;;;;5054017;28;20064;-90
2022/11/01 00:20:53;;;;;;;24.83;13.57;;;;;;;;;;5056973;28;20053;-89
2022/11/01 00:23:20;;;;;;;24.95;13.48;;;;;;;;;;5060377;28;20059;-89
2022/11/01 00:25:48;;;;;;;24.77;13.60;;;;;;;;;;5063880;28;20064;-88
2022/11/01 00:28:15;;;;;;;23.10;13.05;;;;;;;;;;5058078;28;20056;-89
2022/11/01 00:30:42;;;;;;;22.80;13.82;;;;;;;;;;5056288;28;20059;-89
2022/11/01 00:33:09;;;;;;;23.55;12.32;;;;;;;;;;5056261;28;20057;-89
2022/11/01 00:35:36;;;;;;;23.05;13.50;;;;;;;;;;5056522;28;20485;-89
2022/11/01 00:38:05;;;;;;;20.02;11.82;;;;;;;;;;5055898;28;20049;-90
2022/11/01 00:40:32;;;;;;;24.20;13.00;;;;;;;;;;5056076;28;20045;-89
2022/11/01 00:42:59;;;;;;;21.35;10.70;;;;;;;;;;5057010;28;20049;-88
2022/11/01 00:45:26;;;;;;;21.00;11.60;;;;;;;;;;5055889;28;20052;-89
2022/11/01 00:47:53;;;;;;;20.17;10.55;;;;;;;;;;5055914;28;20060;-88
2022/11/01 00:50:21;;;;;;;22.83;10.60;;;;;;;;;;5055516;28;20551;-88
2022/11/01 00:52:48;;;;;;;22.33;10.93;;;;;;;;;;5055677;28;20059;-89
2022/11/01 00:55:15;;;;;;;17.35;10.75;;;;;;;;;;5055803;28;20053;-89
2022/11/01 00:57:46;;;;;;;17.33;9.70;;;;;;;;;;5055603;28;20053;-88
2022/11/01 01:00:14;;;;;;;23.17;11.45;;;;;;;;;;5055701;28;20053;-89
2022/11/01 01:02:41;;;;;;;19.17;9.38;;;;;;;;;;5055409;28;20512;-88
2022/11/01 01:05:09;;;;;;;23.30;10.30;;;;;;;;;;5055378;28;20053;-89
2022/11/01 01:07:36;;;;;;;21.63;9.40;;;;;;;;;;5055692;28;20485;-89
2022/11/01 01:10:05;;;;;;;18.73;9.32;;;;;;;;;;5055411;28;20049;-90
2022/11/01 01:12:32;;;;;;;19.85;9.85;;;;;;;;;;5055420;28;20053;-88
2022/11/01 01:15:00;;;;;;;12.20;8.73;;;;;;;;;;5056377;28;20114;-88
2022/11/01 01:17:27;;;;;;;14.27;8.77;;;;;;;;;;5055507;28;20115;-88
2022/11/01 01:19:59;;;;;;;15.68;8.10;;;;;;;;;;5055202;28;20049;-89
2022/11/01 01:22:27;;;;;;;18.30;9.57;;;;;;;;;;5055467;28;20051;-88
2022/11/01 01:24:54;;;;;;;21.00;9.85;;;;;;;;;;5055126;28;20059;-89
2022/11/01 01:27:22;;;;;;;17.75;9.27;;;;;;;;;;5055112;28;20045;-90
2022/11/01 01:29:49;;;;;;;19.20;9.20;;;;;;;;;;5054457;28;20049;-89
2022/11/01 01:32:17;;;;;;;19.05;8.75;;;;;;;;;;5055110;28;20412;-89
2022/11/01 01:34:44;;;;;;;14.98;9.70;;;;;;;;;;5055100;28;20057;-88
2022/11/01 01:37:14;;;;;;;14.13;9.77;;;;;;;;;;5055082;28;20059;-88
2022/11/01 01:39:41;;;;;;;18.70;9.63;;;;;;;;;;5054700;28;20048;-89
2022/11/01 01:42:32;;;;;;;14.93;9.98;;;;;;;;;;5054851;28;20053;-88
2022/11/01 01:44:59;;;;;;;17.67;9.82;;;;;;;;;;5049773;28;20064;-89
2022/11/01 01:47:26;;;;;;;20.38;9.75;;;;;;;;;;5054832;28;20056;-87
2022/11/01 01:49:55;;;;;;;19.02;10.63;;;;;;;;;;5054637;28;20555;-89
2022/11/01 01:52:23;;;;;;;22.73;11.80;;;;;;;;;;5054844;28;20412;-89
2022/11/01 01:54:50;;;;;;;21.70;11.02;;;;;;;;;;5054567;28;20045;-89
2022/11/01 01:57:18;;;;;;;35.15;13.07;;;;;;;;;;5054552;28;20117;-90
2022/11/01 01:59:47;;;;;;;23.95;13.52;;;;;;;;;;5054231;28;20118;-88
2022/11/01 02:02:17;;;;;;;19.23;12.98;;;;;;;;;;5054567;28;20053;-87
2022/11/01 02:04:48;;;;;;;25.23;12.40;;;;;;;;;;5054392;28;20080;-89
2022/11/01 02:07:15;;;;;;;20.08;10.18;;;;;;;;;;5054411;28;20053;-88
2022/11/01 02:09:42;;;;;;;22.58;10.27;;;;;;;;;;5054292;28;20483;-88
2022/11/01 02:12:13;;;;;;;15.30;10.10;;;;;;;;;;5054307;28;20071;-88
2022/11/01 02:14:41;;;;;;;22.60;9.75;;;;;;;;;;5054312;28;20055;-86
2022/11/01 02:17:22;;;;;;;24.70;9.82;;;;;;;;;;5054152;28;20071;-86
2022/11/01 02:20:19;;;;;;;19.92;10.50;;;;;;;;;;5053751;28;20048;-87
2022/11/01 02:22:53;;;;;;;17.10;8.93;;;;;;;;;;5019976;28;20050;-86
2022/11/01 02:25:26;;;;;;;21.75;10.18;;;;;;;;;;5053892;28;20057;-86
2022/11/01 02:28:03;;;;;;;20.83;10.02;;;;;;;;;;5054058;28;20059;-87
2022/11/01 02:30:38;;;;;;;18.23;9.40;;;;;;;;;;5054314;28;20056;-86
2022/11/01 02:33:12;;;;;;;18.42;9.02;;;;;;;;;;5054308;28;20485;-86
2022/11/01 02:35:48;;;;;;;17.35;8.25;;;;;;;;;;5053855;28;20053;-86
2022/11/01 02:38:21;;;;;;;16.05;9.05;;;;;;;;;;5053632;28;20471;-86
2022/11/01 02:41:02;;;;;;;18.42;9.05;;;;;;;;;;5053756;28;20075;-87
2022/11/01 02:43:32;;;;;;;20.00;9.73;;;;;;;;;;5053656;28;20057;-88
2022/11/01 02:46:59;;;;;;;22.02;9.60;;;;;;;;;;5053704;28;20132;-89
2022/11/01 02:48:48;;;;;;;16.00;8.60;;;;;;;;;;5054508;28;20056;-88
2022/11/01 02:51:18;;;;;;;25.73;9.27;;;;;;;;;;5053479;28;20053;-88
2022/11/01 02:53:45;;;;;;;21.33;10.52;;;;;;;;;;5053526;28;20045;-88
2022/11/01 02:56:13;;;;;;;18.05;10.52;;;;;;;;;;5053573;28;20512;-87
2022/11/01 02:58:40;;;;;;;17.95;9.52;;;;;;;;;;5053394;28;20045;-87
2022/11/01 03:01:14;;;;;;;18.08;10.10;;;;;;;;;;5053330;28;20060;-87
2022/11/01 03:03:42;;;;;;;21.58;10.32;;;;;;;;;;5053386;28;20155;-88
2022/11/01 03:06:20;;;;;;;16.02;9.63;;;;;;;;;;5053129;28;20057;-87
2022/11/01 03:08:50;;;;;;;23.13;9.80;;;;;;;;;;5054384;28;20049;-88
2022/11/01 03:11:19;;;;;;;19.98;10.05;;;;;;;;;;5053832;28;20123;-87
2022/11/01 03:14:05;;;;;;;25.92;11.13;;;;;;;;;;5053816;28;20052;-88
2022/11/01 03:16:53;;;;;;;22.73;10.93;;;;;;;;;;5053157;28;20473;-87
2022/11/01 03:19:29;;;;;;;23.13;9.90;;;;;;;;;;5052999;28;20045;-88
2022/11/01 03:22:00;;;;;;;23.30;10.30;;;;;;;;;;5053100;28;20051;-88
2022/11/01 03:24:29;;;;;;;15.85;9.07;;;;;;;;;;5053190;28;20544;-88
2022/11/01 03:27:07;;;;;;;23.20;10.85;;;;;;;;;;5053087;28;20052;-89
2022/11/01 03:29:36;;;;;;;25.05;10.05;;;;;;;;;;5053359;28;20064;-88
2022/11/01 03:32:04;;;;;;;21.65;10.75;;;;;;;;;;5053209;28;20436;-87
2022/11/01 03:34:32;;;;;;;26.08;10.70;;;;;;;;;;5053204;28;20071;-88
2022/11/01 03:37:01;;;;;;;25.23;10.65;;;;;;;;;;5052722;28;20049;-88
2022/11/01 03:39:32;;;;;;;20.85;10.73;;;;;;;;;;5052817;28;20049;-88
2022/11/01 03:42:02;;;;;;;23.17;11.05;;;;;;;;;;5053192;28;20049;-88
2022/11/01 03:44:35;;;;;;;20.33;9.80;;;;;;;;;;5052734;28;20045;-87
2022/11/01 03:47:02;;;;;;;23.02;10.43;;;;;;;;;;5053707;28;20136;-87
2022/11/01 03:49:29;;;;;;;18.83;10.70;;;;;;;;;;5053018;28;20053;-86
2022/11/01 03:51:57;;;;;;;25.45;10.10;;;;;;;;;;5052673;28;20128;-88
2022/11/01 03:54:26;;;;;;;19.35;10.02;;;;;;;;;;5051499;28;20520;-87
2022/11/01 03:56:53;;;;;;;15.02;9.70;;;;;;;;;;5052097;28;20055;-87
2022/11/01 03:59:22;;;;;;;18.27;9.52;;;;;;;;;;5052284;28;20390;-87
2022/11/01 04:01:49;;;;;;;17.15;8.82;;;;;;;;;;5052745;28;20056;-87
2022/11/01 04:04:16;;;;;;;15.80;8.98;;;;;;;;;;5052555;28;20106;-88
2022/11/01 04:06:44;;;;;;;20.65;9.25;;;;;;;;;;5052349;28;20114;-87
2022/11/01 04:09:11;;;;;;;19.80;8.85;;;;;;;;;;5052632;28;20432;-88
2022/11/01 04:11:38;;;;;;;18.42;8.43;;;;;;;;;;5052496;28;20059;-86
2022/11/01 04:22:26;;;;;;;20.88;11.73;;;;;;;;;;5053315;28;20400;-87
2022/11/01 04:24:53;;;;;;;17.98;10.18;;;;;;;;;;5051907;28;20063;-86
2022/11/01 04:27:21;;;;;;;16.20;10.50;;;;;;;;;;5051876;28;20508;-85
2022/11/01 04:29:48;;;;;;;19.25;11.25;;;;;;;;;;5052196;28;20068;-88
2022/11/01 04:32:15;;;;;;;23.05;14.52;;;;;;;;;;5051938;28;20045;-85
2022/11/01 04:34:43;;;;;;;30.42;12.20;;;;;;;;;;5051941;28;20501;-86
2022/11/01 04:37:11;;;;;;;18.58;10.70;;;;;;;;;;5051864;28;20109;-86
2022/11/01 04:39:38;;;;;;;23.88;9.15;;;;;;;;;;5051567;28;20521;-85
2022/11/01 04:42:05;;;;;;;23.05;11.45;;;;;;;;;;5051848;28;20044;-85
2022/11/01 04:44:38;;;;;;;26.45;14.02;;;;;;;;;;5051739;28;20141;-85
2022/11/01 04:47:05;;;;;;;29.58;17.05;;;;;;;;;;5051726;28;20051;-87
2022/11/01 04:49:32;;;;;;;29.35;10.98;;;;;;;;;;5051804;28;20057;-86
2022/11/01 04:51:59;;;;;;;24.73;10.55;;;;;;;;;;5051534;28;20412;-86
2022/11/01 04:54:32;;;;;;;20.15;10.27;;;;;;;;;;5051592;28;20048;-85
2022/11/01 04:56:59;;;;;;;18.73;10.43;;;;;;;;;;5050009;28;20124;-85
2022/11/01 04:59:38;;;;;;;21.75;14.40;;;;;;;;;;5051480;28;20087;-86
2022/11/01 05:02:05;;;;;;;26.80;20.20;;;;;;;;;;5051649;28;20052;-86
2022/11/01 05:04:32;;;;;;;21.92;11.00;;;;;;;;;;5052357;28;20493;-85
2022/11/01 05:07:03;;;;;;;17.30;9.77;;;;;;;;;;5055404;28;20045;-85
2022/11/01 05:09:30;;;;;;;20.20;10.50;;;;;;;;;;5054677;28;20067;-85
2022/11/01 05:12:18;;;;;;;15.80;10.02;;;;;;;;;;5055446;28;20047;-86
2022/11/01 05:14:45;;;;;;;17.98;10.65;;;;;;;;;;5054988;28;20053;-87
2022/11/01 05:17:12;;;;;;;22.52;11.32;;;;;;;;;;5055155;28;20497;-85
2022/11/01 05:19:42;;;;;;;23.42;11.70;;;;;;;;;;5055043;28;20049;-85
2022/11/01 05:22:10;;;;;;;21.80;10.73;;;;;;;;;;5056142;28;20049;-84
2022/11/01 05:25:02;;;;;;;20.80;10.68;;;;;;;;;;5056147;28;20056;-86
2022/11/01 05:27:28;;;;;;;18.08;10.27;;;;;;;;;;5055721;28;20132;-85
2022/11/01 05:30:04;;;;;;;17.60;9.63;;;;;;;;;;5055019;28;20057;-86
2022/11/01 05:32:31;;;;;;;14.20;9.32;;;;;;;;;;5055953;28;20043;-86
2022/11/01 05:34:58;;;;;;;20.60;9.70;;;;;;;;;;5054674;28;20487;-87
2022/11/01 05:37:26;;;;;;;22.83;10.68;;;;;;;;;;5054903;28;20060;-86
2022/11/01 05:39:54;;;;;;;19.58;11.00;;;;;;;;;;5054472;28;20075;-86
2022/11/01 05:42:24;;;;;;;22.98;10.18;;;;;;;;;;5054590;28;20052;-87
2022/11/01 05:44:52;;;;;;;19.73;10.27;;;;;;;;;;5055894;28;20084;-87
2022/11/01 05:47:21;;;;;;;19.13;11.50;;;;;;;;;;5054886;28;20132;-87
2022/11/01 05:49:49;;;;;;;25.48;12.40;;;;;;;;;;5054762;28;20084;-87
2022/11/01 05:52:17;;;;;;;22.35;13.45;;;;;;;;;;5054663;28;20390;-87
2022/11/01 05:54:47;;;;;;;34.00;14.98;;;;;;;;;;5054454;28;20076;-87
2022/11/01 05:57:14;;;;;;;29.83;16.58;;;;;;;;;;5054281;28;20497;-87
2022/11/01 05:59:41;;;;;;;26.45;16.70;;;;;;;;;;5054350;28;20346;-87
2022/11/01 06:02:09;;;;;;;28.17;17.83;;;;;;;;;;5054187;28;20442;-87
2022/11/01 06:05:09;;;;;;;33.90;17.20;;;;;;;;;;5054064;28;20053;-87
2022/11/01 06:07:38;;;;;;;30.73;17.95;;;;;;;;;;5032230;28;20045;-88
2022/11/01 06:10:06;;;;;;;40.72;17.10;;;;;;;;;;5053647;28;20139;-88
2022/11/01 06:12:33;;;;;;;41.85;16.73;;;;;;;;;;5054202;28;20112;-88
2022/11/01 06:15:00;;;;;;;41.45;16.67;;;;;;;;;;5054106;28;20045;-88
2022/11/01 06:17:28;;;;;;;38.45;17.17;;;;;;;;;;5053518;28;20442;-88
2022/11/01 06:19:55;;;;;;;28.40;13.45;;;;;;;;;;5054379;28;20055;-88
2022/11/01 06:22:22;;;;;;;30.00;12.32;;;;;;;;;;5054285;28;20053;-86
2022/11/01 06:24:50;;;;;;;28.23;13.05;;;;;;;;;;5054090;28;20055;-88
2022/11/01 06:27:17;;;;;;;21.67;12.55;;;;;;;;;;5053963;28;20049;-87
2022/11/01 06:29:44;;;;;;;24.55;13.02;;;;;;;;;;5054015;28;20548;-88
2022/11/01 06:32:11;;;;;;;23.77;12.32;;;;;;;;;;5053879;28;20056;-87
2022/11/01 06:34:39;;;;;;;19.70;13.02;;;;;;;;;;5054021;28;20059;-87
2022/11/01 06:37:11;;;;;;;25.48;13.25;;;;;;;;;;5053724;28;20049;-88
2022/11/01 06:39:38;;;;;;;31.63;13.50;;;;;;;;;;5053669;28;20064;-88
2022/11/01 06:42:05;;;;;;;31.77;14.82;;;;;;;;;;5053963;28;20053;-87
2022/11/01 06:44:32;;;;;;;38.65;14.35;;;;;;;;;;5053533;28;20051;-87
2022/11/01 06:47:00;;;;;;;44.70;14.13;;;;;;;;;;5053644;28;20051;-87
2022/11/01 06:49:28;;;;;;;42.70;15.93;;;;;;;;;;5053826;28;20132;-88
2022/11/01 06:51:55;;;;;;;47.97;15.45;;;;;;;;;;5053774;28;20386;-88
2022/11/01 06:54:23;;;;;;;46.15;16.02;;;;;;;;;;5053278;28;20055;-88
2022/11/01 06:56:50;;;;;;;30.50;14.15;;;;;;;;;;5053727;28;20139;-88
2022/11/01 06:59:17;;;;;;;31.35;14.63;;;;;;;;;;5053396;28;20090;-87
2022/11/01 07:01:44;;;;;;;38.03;13.52;;;;;;;;;;5053561;28;20049;-89
2022/11/01 07:04:14;;;;;;;28.42;13.05;;;;;;;;;;5053486;28;20052;-88
2022/11/01 07:06:42;;;;;;;30.67;15.45;;;;;;;;;;5052921;28;20053;-86
2022/11/01 07:09:09;;;;;;;30.70;14.40;;;;;;;;;;5053175;28;20056;-87
2022/11/01 07:11:37;;;;;;;30.63;14.30;;;;;;;;;;5053154;28;20098;-88
2022/11/01 07:14:04;;;;;;;33.13;13.93;;;;;;;;;;5052426;28;20136;-87
2022/11/01 07:16:32;;;;;;;30.90;13.00;;;;;;;;;;5053184;28;20055;-87
2022/11/01 07:18:59;;;;;;;42.35;14.35;;;;;;;;;;5053354;28;20059;-88
2022/11/01 07:21:27;;;;;;;40.88;14.10;;;;;;;;;;5052994;28;20404;-88
2022/11/01 07:23:54;;;;;;;32.40;11.70;;;;;;;;;;5052760;28;20071;-87
2022/11/01 07:26:40;;;;;;;83.63;15.82;;;;;;;;;;5052983;28;20053;-85
2022/11/01 07:29:07;;;;;;;49.55;15.18;;;;;;;;;;5052228;28;20132;-86
2022/11/01 07:31:37;;;;;;;29.08;15.32;;;;;;;;;;5052937;28;20055;-88
2022/11/01 07:34:05;;;;;;;27.70;14.27;;;;;;;;;;5052362;28;20049;-87
2022/11/01 07:36:32;;;;;;;27.98;14.57;;;;;;;;;;5053955;28;20402;-85
2022/11/01 07:38:59;;;;;;;26.52;14.02;;;;;;;;;;5052360;28;20049;-85
2022/11/01 07:41:27;;;;;;;27.70;13.85;;;;;;;;;;5052719;28;20075;-85
2022/11/01 07:43:54;;;;;;;19.73;12.52;;;;;;;;;;5052872;28;20119;-87
2022/11/01 07:46:24;;;;;;;27.80;13.52;;;;;;;;;;5052648;28;20485;-87
2022/11/01 07:48:51;;;;;;;31.67;14.63;;;;;;;;;;5052352;28;20049;-86
2022/11/01 07:51:19;;;;;;;27.17;11.82;;;;;;;;;;5052384;28;20048;-88
2022/11/01 07:53:49;;;;;;;33.63;13.45;;;;;;;;;;5052563;28;20060;-85
2022/11/01 07:56:25;;;;;;;39.50;13.30;;;;;;;;;;5052514;28;20098;-86
2022/11/01 07:58:52;;;;;;;24.02;12.88;;;;;;;;;;5052199;28;20140;-86
2022/11/01 08:01:20;;;;;;;21.55;12.20;;;;;;;;;;5052277;28;20053;-85
2022/11/01 08:03:48;;;;;;;19.67;11.23;;;;;;;;;;5052238;28;20413;-86
2022/11/01 08:06:18;;;;;;;16.98;10.98;;;;;;;;;;5051873;28;20132;-86
2022/11/01 08:08:46;;;;;;;13.50;9.82;;;;;;;;;;5052458;28;20048;-89
2022/11/01 08:11:13;;;;;;;11.48;9.55;;;;;;;;;;5052396;28;20045;-86
2022/11/01 08:13:43;;;;;;;17.27;9.93;;;;;;;;;;5052494;28;20057;-85
2022/11/01 08:16:12;;;;;;;13.05;7.90;;;;;;;;;;5051987;28;20056;-91
2022/11/01 08:18:42;;;;;;;12.27;8.20;;;;;;;;;;5052189;28;20075;-85
2022/11/01 08:21:10;;;;;;;16.13;8.82;;;;;;;;;;5051785;28;20045;-87
2022/11/01 08:23:37;;;;;;;13.45;8.30;;;;;;;;;;5052176;28;20049;-85
2022/11/01 08:26:05;;;;;;;9.75;7.38;;;;;;;;;;5051853;28;20073;-87
2022/11/01 08:28:32;;;;;;;14.13;6.95;;;;;;;;;;5052427;28;20499;-86
2022/11/01 08:31:04;;;;;;;14.15;6.68;;;;;;;;;;5051329;28;20067;-86
2022/11/01 08:33:35;;;;;;;8.63;5.63;;;;;;;;;;5052313;28;20382;-87
2022/11/01 08:36:02;;;;;;;8.85;5.65;;;;;;;;;;5051805;28;20056;-86
2022/11/01 08:38:29;;;;;;;10.50;5.53;;;;;;;;;;5052288;28;20067;-87
2022/11/01 08:41:00;;;;;;;10.68;5.03;;;;;;;;;;5055704;28;20412;-86
2022/11/01 08:43:27;;;;;;;8.23;5.40;;;;;;;;;;5057396;28;20048;-86
2022/11/01 08:45:54;;;;;;;6.30;4.45;;;;;;;;;;5058478;28;20139;-86
2022/11/01 08:48:24;;;;;;;6.57;4.07;;;;;;;;;;5056974;28;20300;-86
2022/11/01 08:50:52;;;;;;;4.90;3.35;;;;;;;;;;5057042;28;20051;-85
2022/11/01 08:53:19;;;;;;;8.02;4.28;;;;;;;;;;5056692;28;20053;-90
2022/11/01 08:55:46;;;;;;;8.48;4.15;;;;;;;;;;5055600;28;20049;-89
2022/11/01 08:58:14;;;;;;;8.93;4.95;;;;;;;;;;5055658;28;20141;-88
2022/11/01 09:00:43;;;;;;;10.70;4.35;;;;;;;;;;5064331;23;20485;-86
2022/11/01 09:03:18;;;;;;;7.78;4.72;;;;;;;;;;5037136;28;20059;-88
2022/11/01 09:05:45;;;;;;;12.82;5.57;;;;;;;;;;5038962;28;20045;-87
2022/11/01 09:08:13;;;;;;;13.60;6.07;;;;;;;;;;5038951;28;20421;-88
2022/11/01 09:10:41;;;;;;;13.18;5.97;;;;;;;;;;5039247;28;20053;-85
2022/11/01 09:13:08;;;;;;;20.17;5.70;;;;;;;;;;5038879;28;20052;-87
2022/11/01 09:15:35;;;;;;;11.18;7.18;;;;;;;;;;5038971;28;20131;-88
2022/11/01 09:18:06;;;;;;;16.83;6.38;;;;;;;;;;5038715;28;20055;-84
2022/11/01 09:20:34;;;;;;;13.55;6.88;;;;;;;;;;5038448;28;20053;-88
2022/11/01 09:23:04;;;;;;;12.30;7.65;;;;;;;;;;5038465;28;20540;-88
2022/11/01 09:25:32;;;;;;;15.35;7.55;;;;;;;;;;5038763;28;20490;-87
2022/11/01 09:27:59;;;;;;;16.55;7.78;;;;;;;;;;5039076;28;20051;-88
2022/11/01 09:30:27;;;;;;;10.65;7.60;;;;;;;;;;5038752;28;20501;-87
2022/11/01 09:32:54;;;;;;;17.52;6.82;;;;;;;;;;5038650;28;20049;-88
2022/11/01 09:35:22;;;;;;;13.32;6.88;;;;;;;;;;5038481;28;20070;-87
2022/11/01 09:37:56;;;;;;;11.70;6.25;;;;;;;;;;5037874;28;20095;-88
2022/11/01 09:40:23;;;;;;;8.98;5.68;;;;;;;;;;5038527;28;20049;-87
2022/11/01 09:42:52;;;;;;;11.40;5.38;;;;;;;;;;5039263;28;20493;-88
2022/11/01 09:45:26;;;;;;;10.40;5.40;;;;;;;;;;5038947;28;20114;-88
2022/11/01 09:47:55;;;;;;;8.10;4.85;;;;;;;;;;5038213;28;20060;-87
2022/11/01 09:50:25;;;;;;;12.15;4.50;;;;;;;;;;5037792;28;20056;-88
2022/11/01 09:52:53;;;;;;;5.65;4.45;;;;;;;;;;5038292;28;20512;-88
2022/11/01 09:55:30;;;;;;;5.10;4.00;;;;;;;;;;5037741;28;20404;-88
2022/11/01 09:58:16;;;;;;;7.70;4.03;;;;;;;;;;5037965;28;20516;-89
2022/11/01 10:00:49;;;;;;;13.93;4.30;;;;;;;;;;5038012;28;20059;-88
2022/11/01 10:03:32;;;;;;;21.63;3.95;;;;;;;;;;5037785;28;20045;-88
2022/11/01 10:06:00;;;;;;;6.50;3.70;;;;;;;;;;5038069;28;20049;-89
2022/11/01 10:08:34;;;;;;;4.57;3.10;;;;;;;;;;5040524;28;20055;-87
2022/11/01 10:11:09;;;;;;;4.72;2.97;;;;;;;;;;5037882;28;20060;-88
2022/11/01 10:13:45;;;;;;;5.40;2.80;;;;;;;;;;5037873;28;20049;-88
2022/11/01 10:16:22;;;;;;;5.97;2.38;;;;;;;;;;5037407;28;20053;-88
2022/11/01 10:18:55;;;;;;;4.07;2.28;;;;;;;;;;5037883;28;20056;-88
2022/11/01 10:21:23;;;;;;;2.53;2.05;;;;;;;;;;5037967;28;20055;-87
2022/11/01 10:23:55;;;;;;;9.90;2.40;;;;;;;;;;5038638;28;20414;-88
2022/11/01 10:26:26;;;;;;;11.43;2.40;;;;;;;;;;5037834;28;20132;-87
2022/11/01 10:28:56;;;;;;;4.35;2.50;;;;;;;;;;5037884;28;20087;-87
2022/11/01 10:31:24;;;;;;;2.38;1.92;;;;;;;;;;5037452;28;20049;-87
2022/11/01 10:33:58;;;;;;;5.85;2.72;;;;;;;;;;5037416;28;20061;-88
2022/11/01 10:36:33;;;;;;;5.00;1.88;;;;;;;;;;5037629;28;20053;-89
2022/11/01 10:39:06;;;;;;;8.18;2.22;;;;;;;;;;5037582;28;20507;-88
2022/11/01 10:41:53;;;;;;;4.88;2.28;;;;;;;;;;5040289;28;20455;-88
2022/11/01 10:44:32;;;;;;;5.90;2.35;;;;;;;;;;5037388;28;20481;-89
2022/11/01 10:47:03;;;;;;;6.20;2.20;;;;;;;;;;5037528;28;20493;-88
2022/11/01 10:49:32;;;;;;;6.18;2.20;;;;;;;;;;5037381;28;20049;-87
2022/11/01 10:52:22;;;;;;;11.95;2.42;;;;;;;;;;5040270;28;20048;-87
2022/11/01 10:54:49;;;;;;;3.58;2.08;;;;;;;;;;5054509;28;20057;-87
2022/11/01 10:57:26;;;;;;;7.60;2.25;;;;;;;;;;5036709;28;20390;-87
2022/11/01 10:59:55;;;;;;;11.13;2.35;;;;;;;;;;5037237;28;20489;-87
2022/11/01 11:02:35;;;;;;;5.47;1.98;;;;;;;;;;5036128;28;20057;-88
2022/11/01 11:05:03;;;;;;;5.75;2.20;;;;;;;;;;5037100;28;20051;-89
2022/11/01 11:07:33;;;;;;;10.20;2.47;;;;;;;;;;5037179;28;20051;-88
2022/11/01 11:10:01;;;;;;;6.25;1.92;;;;;;;;;;5035357;28;20250;-89
2022/11/01 11:12:29;;;;;;;7.72;2.20;;;;;;;;;;5036647;28;20075;-88
2022/11/01 11:14:59;;;;;;;7.60;2.05;;;;;;;;;;5037059;28;20056;-88
2022/11/01 11:17:34;;;;;;;12.02;2.42;;;;;;;;;;5036955;28;20412;-88
2022/11/01 11:20:06;;;;;;;4.43;1.92;;;;;;;;;;5037234;28;20390;-87
2022/11/01 11:22:41;;;;;;;3.35;1.90;;;;;;;;;;5036939;28;20059;-88
2022/11/01 11:25:16;;;;;;;6.93;2.05;;;;;;;;;;5038032;28;20057;-90
2022/11/01 11:27:47;;;;;;;5.20;1.98;;;;;;;;;;5036751;28;20057;-89
2022/11/01 11:30:26;;;;;;;3.67;1.63;;;;;;;;;;5037193;28;20577;-87
2022/11/01 11:32:53;;;;;;;8.38;1.80;;;;;;;;;;5038501;28;20135;-88
2022/11/01 11:35:22;;;;;;;8.43;2.60;;;;;;;;;;5036574;28;20071;-87
2022/11/01 11:37:56;;;;;;;2.67;1.75;;;;;;;;;;5036628;28;20063;-90
2022/11/01 11:40:27;;;;;;;4.15;2.00;;;;;;;;;;5036031;28;20048;-88
2022/11/01 11:42:56;;;;;;;19.52;2.78;;;;;;;;;;5036678;28;20440;-88
2022/11/01 11:45:23;;;;;;;11.65;2.08;;;;;;;;;;5036504;28;20045;-88
2022/11/01 11:47:51;;;;;;;8.25;1.90;;;;;;;;;;5036594;28;20045;-89
2022/11/01 11:50:22;;;;;;;3.45;1.80;;;;;;;;;;5036531;28;20055;-89
2022/11/01 11:53:17;;;;;;;5.30;1.83;;;;;;;;;;5036255;28;20509;-89
2022/11/01 11:55:47;;;;;;;3.58;1.65;;;;;;;;;;5035049;28;20084;-88
2022/11/01 11:58:17;;;;;;;9.40;1.90;;;;;;;;;;5036615;28;20053;-88
2022/11/01 12:00:47;;;;;;;9.25;2.58;;;;;;;;;;5036189;28;20049;-88
2022/11/01 12:03:16;;;;;;;6.97;2.13;;;;;;;;;;5036707;28;20057;-88
2022/11/01 12:05:54;;;;;;;10.30;2.10;;;;;;;;;;5036352;28;20053;-89
2022/11/01 12:08:26;;;;;;;4.65;1.90;;;;;;;;;;5036243;28;20053;-89
2022/11/01 12:10:57;;;;;;;4.85;1.70;;;;;;;;;;5037993;28;20045;-89
2022/11/01 12:13:25;;;;;;;6.57;2.05;;;;;;;;;;5036422;28;20045;-89
2022/11/01 12:16:11;;;;;;;8.35;1.95;;;;;;;;;;5040443;28;20072;-87
2022/11/01 12:18:49;;;;;;;11.43;2.10;;;;;;;;;;5040142;28;20066;-89
2022/11/01 12:21:17;;;;;;;7.95;2.10;;;;;;;;;;5040229;28;20059;-88
2022/11/01 12:23:45;;;;;;;6.20;2.17;;;;;;;;;;5040035;28;20045;-89
2022/11/01 12:26:14;;;;;;;3.45;1.58;;;;;;;;;;5040075;28;20057;-88
2022/11/01 12:28:45;;;;;;;2.45;1.42;;;;;;;;;;5040056;28;20132;-89
2022/11/01 12:31:18;;;;;;;8.85;1.80;;;;;;;;;;5040756;28;20068;-87
2022/11/01 12:33:47;;;;;;;9.88;2.13;;;;;;;;;;5040667;28;20122;-86
2022/11/01 12:36:17;;;;;;;12.07;3.03;;;;;;;;;;5039632;28;20060;-92
2022/11/01 12:38:47;;;;;;;5.43;1.90;;;;;;;;;;5030662;28;20049;-87
2022/11/01 12:41:29;;;;;;;7.25;1.73;;;;;;;;;;5035752;28;20049;-88
2022/11/01 12:44:17;;;;;;;3.35;1.52;;;;;;;;;;5031206;28;20037;-88
2022/11/01 12:46:57;;;;;;;3.20;1.63;;;;;;;;;;5027510;28;20049;-88
2022/11/01 12:49:34;;;;;;;1.60;1.13;;;;;;;;;;5029699;28;20055;-88
2022/11/01 12:52:13;;;;;;;5.80;1.35;;;;;;;;;;5029226;28;20037;-88
2022/11/01 12:54:50;;;;;;;8.30;1.90;;;;;;;;;;5028841;28;20168;-88
2022/11/01 12:57:20;;;;;;;5.38;1.63;;;;;;;;;;5033200;28;20049;-90
2022/11/01 12:59:47;;;;;;;4.93;1.55;;;;;;;;;;5027608;28;20061;-86
2022/11/01 13:02:34;;;;;;;5.97;1.52;;;;;;;;;;5027651;28;20144;-86
2022/11/01 13:05:20;;;;;;;3.63;1.30;;;;;;;;;;5028110;28;20249;-86
2022/11/01 13:08:06;;;;;;;4.22;1.42;;;;;;;;;;5026981;28;20500;-87
2022/11/01 13:10:36;;;;;;;3.13;1.50;;;;;;;;;;5046477;28;20048;-87
2022/11/01 13:13:21;;;;;;;5.18;1.42;;;;;;;;;;5028740;28;20136;-88
2022/11/01 13:15:58;;;;;;;5.55;1.45;;;;;;;;;;5028979;28;20051;-89
2022/11/01 13:18:34;;;;;;;6.10;1.60;;;;;;;;;;5028814;28;20053;-89
2022/11/01 13:21:01;;;;;;;3.40;1.65;;;;;;;;;;5028508;28;20059;-90
2022/11/01 13:23:36;;;;;;;4.07;1.25;;;;;;;;;;5026747;28;20477;-89
2022/11/01 13:26:10;;;;;;;5.90;1.17;;;;;;;;;;5025990;28;20045;-90
2022/11/01 13:28:56;;;;;;;4.68;1.40;;;;;;;;;;5036652;28;20075;-88
2022/11/01 13:31:46;;;;;;;12.52;2.00;;;;;;;;;;5038725;28;20063;-85
2022/11/01 13:34:19;;;;;;;3.08;1.60;;;;;;;;;;5038528;28;20067;-88
2022/11/01 13:37:05;;;;;;;9.70;1.88;;;;;;;;;;5034925;28;20045;-89
2022/11/01 13:39:50;;;;;;;10.07;1.80;;;;;;;;;;5038843;28;20041;-88
2022/11/01 13:42:21;;;;;;;4.47;1.65;;;;;;;;;;5038422;28;20053;-87
2022/11/01 13:44:50;;;;;;;2.55;1.45;;;;;;;;;;5038773;28;20588;-89
2022/11/01 13:47:17;;;;;;;4.85;1.40;;;;;;;;;;5038747;28;20067;-89
2022/11/01 13:49:45;;;;;;;13.30;1.92;;;;;;;;;;5038526;28;20041;-87
2022/11/01 13:52:15;;;;;;;6.70;1.85;;;;;;;;;;5038734;28;20057;-89
2022/11/01 13:54:50;;;;;;;4.05;1.33;;;;;;;;;;5038638;28;20049;-89
2022/11/01 13:57:19;;;;;;;5.43;1.48;;;;;;;;;;5048120;28;20056;-87
2022/11/01 13:59:50;;;;;;;2.47;1.23;;;;;;;;;;5038980;28;20543;-89
2022/11/01 14:02:23;;;;;;;3.50;1.70;;;;;;;;;;5038250;28;20071;-89
2022/11/01 14:04:58;;;;;;;1.98;1.35;;;;;;;;;;5038513;28;20060;-87
2022/11/01 14:07:52;;;;;;;5.10;1.20;;;;;;;;;;5055530;28;20049;-88
2022/11/01 14:10:22;;;;;;;6.45;1.48;;;;;;;;;;5035083;28;20052;-88
2022/11/01 14:12:56;;;;;;;15.07;2.50;;;;;;;;;;5054880;28;20128;-88
2022/11/01 14:15:27;;;;;;;3.90;1.17;;;;;;;;;;5038334;28;20045;-90
2022/11/01 14:18:08;;;;;;;5.68;1.00;;;;;;;;;;5039105;28;20049;-89
2022/11/01 14:20:39;;;;;;;5.30;1.63;;;;;;;;;;5044986;28;20051;-88
2022/11/01 14:23:31;;;;;;;2.13;1.10;;;;;;;;;;5044662;28;20049;-88
2022/11/01 14:26:17;;;;;;;2.35;1.02;;;;;;;;;;5038929;28;20055;-88
2022/11/01 14:28:45;;;;;;;24.10;4.35;;;;;;;;;;5037477;28;20572;-89
2022/11/01 14:31:13;;;;;;;1.42;0.90;;;;;;;;;;5037155;28;20061;-89
2022/11/01 14:33:41;;;;;;;3.70;1.00;;;;;;;;;;5037641;28;20485;-88
2022/11/01 14:36:11;;;;;;;3.33;1.00;;;;;;;;;;5037709;28;20045;-89
2022/11/01 14:38:48;;;;;;;1.83;0.93;;;;;;;;;;5037799;28;20071;-89
2022/11/01 14:41:17;;;;;;;3.35;0.90;;;;;;;;;;5037073;28;20045;-87
2022/11/01 14:43:49;;;;;;;2.30;1.00;;;;;;;;;;5037421;28;20057;-88
2022/11/01 14:46:19;;;;;;;1.02;0.63;;;;;;;;;;5037167;28;20060;-89
2022/11/01 14:49:05;;;;;;;1.70;0.90;;;;;;;;;;5037505;28;20487;-87
2022/11/01 14:51:37;;;;;;;3.58;1.00;;;;;;;;;;5037423;28;20076;-86
2022/11/01 14:54:12;;;;;;;1.63;0.73;;;;;;;;;;5037141;28;20489;-87
2022/11/01 14:56:41;;;;;;;3.13;1.15;;;;;;;;;;5037190;28;20055;-87
2022/11/01 14:59:27;;;;;;;5.25;1.02;;;;;;;;;;5037446;28;20145;-87